sensor_id;sensor_type;location;lat;lon;timestamp;P1;durP1;ratioP1;P2;durP2;ratioP2
15307;SDS011;7755;52.208;6.964;2024-02-14T00:01:17;6.40;;;5.80;;
15307;SDS011;7755;52.208;6.964;2024-02-14T00:05:23;8.40;;;5.87;;
15307;SDS011;7755;52.208;6.964;2024-02-14T00:09:30;6.73;;;5.90;;
15307;SDS011;7755;52.208;6.964;2024-02-14T00:13:35;10.37;;;6.03;;
15307;SDS011;7755;52.208;6.964;2024-02-14T00:17:41;7.60;;;6.90;;
15307;SDS011;7755;52.208;6.964;2024-02-14T00:21:46;8.03;;;6.80;;
15307;SDS011;7755;52.208;6.964;2024-02-14T00:25:54;8.57;;;6.50;;
15307;SDS011;7755;52.208;6.964;2024-02-14T00:29:59;9.87;;;6.83;;
15307;SDS011;7755;52.208;6.964;2024-02-14T00:34:25;7.23;;;6.37;;
15307;SDS011;7755;52.208;6.964;2024-02-14T00:38:30;7.97;;;7.27;;
15307;SDS011;7755;52.208;6.964;2024-02-14T00:42:38;7.80;;;7.00;;
15307;SDS011;7755;52.208;6.964;2024-02-14T00:46:43;8.43;;;7.57;;
15307;SDS011;7755;52.208;6.964;2024-02-14T00:50:48;7.50;;;6.63;;
15307;SDS011;7755;52.208;6.964;2024-02-14T00:54:54;9.37;;;7.27;;
15307;SDS011;7755;52.208;6.964;2024-02-14T00:59:01;8.40;;;7.60;;
15307;SDS011;7755;52.208;6.964;2024-02-14T01:03:07;8.50;;;7.10;;
15307;SDS011;7755;52.208;6.964;2024-02-14T01:07:14;7.83;;;6.97;;
15307;SDS011;7755;52.208;6.964;2024-02-14T01:11:20;8.33;;;7.63;;
15307;SDS011;7755;52.208;6.964;2024-02-14T01:15:27;8.43;;;7.63;;
15307;SDS011;7755;52.208;6.964;2024-02-14T01:19:32;9.57;;;8.57;;
15307;SDS011;7755;52.208;6.964;2024-02-14T01:23:38;9.60;;;8.13;;
15307;SDS011;7755;52.208;6.964;2024-02-14T01:27:43;8.73;;;7.93;;
15307;SDS011;7755;52.208;6.964;2024-02-14T01:31:50;9.10;;;8.17;;
15307;SDS011;7755;52.208;6.964;2024-02-14T01:35:56;9.03;;;8.13;;
15307;SDS011;7755;52.208;6.964;2024-02-14T01:40:02;8.90;;;8.00;;
15307;SDS011;7755;52.208;6.964;2024-02-14T01:44:22;14.10;;;9.10;;
15307;SDS011;7755;52.208;6.964;2024-02-14T01:48:30;9.73;;;8.80;;
15307;SDS011;7755;52.208;6.964;2024-02-14T01:52:35;10.43;;;8.83;;
15307;SDS011;7755;52.208;6.964;2024-02-14T01:56:40;8.70;;;7.80;;
15307;SDS011;7755;52.208;6.964;2024-02-14T02:00:47;8.53;;;7.83;;
15307;SDS011;7755;52.208;6.964;2024-02-14T02:04:55;9.60;;;7.80;;
15307;SDS011;7755;52.208;6.964;2024-02-14T02:09:00;8.17;;;7.37;;
15307;SDS011;7755;52.208;6.964;2024-02-14T02:13:06;8.33;;;7.53;;
15307;SDS011;7755;52.208;6.964;2024-02-14T02:17:32;8.63;;;7.93;;
15307;SDS011;7755;52.208;6.964;2024-02-14T02:22:00;9.50;;;8.13;;
15307;SDS011;7755;52.208;6.964;2024-02-14T02:26:14;8.80;;;8.00;;
15307;SDS011;7755;52.208;6.964;2024-02-14T02:30:39;8.47;;;7.57;;
15307;SDS011;7755;52.208;6.964;2024-02-14T02:34:44;8.87;;;7.50;;
15307;SDS011;7755;52.208;6.964;2024-02-14T02:38:49;8.37;;;7.57;;
15307;SDS011;7755;52.208;6.964;2024-02-14T02:43:17;7.97;;;7.17;;
15307;SDS011;7755;52.208;6.964;2024-02-14T02:47:43;7.93;;;7.07;;
15307;SDS011;7755;52.208;6.964;2024-02-14T02:52:10;7.00;;;6.37;;
15307;SDS011;7755;52.208;6.964;2024-02-14T02:56:21;7.20;;;6.57;;
15307;SDS011;7755;52.208;6.964;2024-02-14T03:00:31;8.13;;;6.80;;
15307;SDS011;7755;52.208;6.964;2024-02-14T03:04:52;7.17;;;6.10;;
15307;SDS011;7755;52.208;6.964;2024-02-14T03:09:16;8.67;;;6.87;;
15307;SDS011;7755;52.208;6.964;2024-02-14T03:13:41;7.20;;;6.50;;
15307;SDS011;7755;52.208;6.964;2024-02-14T03:18:09;8.83;;;7.90;;
15307;SDS011;7755;52.208;6.964;2024-02-14T03:22:15;8.13;;;7.33;;
15307;SDS011;7755;52.208;6.964;2024-02-14T03:26:21;9.43;;;8.47;;
15307;SDS011;7755;52.208;6.964;2024-02-14T03:30:26;8.77;;;7.73;;
15307;SDS011;7755;52.208;6.964;2024-02-14T03:34:34;10.93;;;8.00;;
15307;SDS011;7755;52.208;6.964;2024-02-14T03:38:39;11.00;;;8.63;;
15307;SDS011;7755;52.208;6.964;2024-02-14T03:42:45;9.17;;;7.20;;
15307;SDS011;7755;52.208;6.964;2024-02-14T03:46:50;9.57;;;8.00;;
15307;SDS011;7755;52.208;6.964;2024-02-14T03:50:57;8.53;;;7.63;;
15307;SDS011;7755;52.208;6.964;2024-02-14T03:55:05;8.07;;;7.27;;
15307;SDS011;7755;52.208;6.964;2024-02-14T03:59:13;8.63;;;7.73;;
15307;SDS011;7755;52.208;6.964;2024-02-14T04:03:26;8.43;;;7.63;;
15307;SDS011;7755;52.208;6.964;2024-02-14T04:07:34;8.40;;;7.07;;
15307;SDS011;7755;52.208;6.964;2024-02-14T04:11:40;8.10;;;6.60;;
15307;SDS011;7755;52.208;6.964;2024-02-14T04:15:45;7.80;;;7.00;;
15307;SDS011;7755;52.208;6.964;2024-02-14T04:19:54;7.60;;;6.90;;
15307;SDS011;7755;52.208;6.964;2024-02-14T04:24:02;8.07;;;7.27;;
15307;SDS011;7755;52.208;6.964;2024-02-14T04:28:07;7.23;;;6.50;;
15307;SDS011;7755;52.208;6.964;2024-02-14T04:32:13;7.57;;;6.97;;
15307;SDS011;7755;52.208;6.964;2024-02-14T04:36:19;8.10;;;7.30;;
15307;SDS011;7755;52.208;6.964;2024-02-14T04:40:27;8.27;;;7.47;;
15307;SDS011;7755;52.208;6.964;2024-02-14T04:44:32;7.83;;;7.03;;
15307;SDS011;7755;52.208;6.964;2024-02-14T04:48:39;7.67;;;6.97;;
15307;SDS011;7755;52.208;6.964;2024-02-14T04:52:44;6.80;;;6.10;;
15307;SDS011;7755;52.208;6.964;2024-02-14T04:56:52;7.50;;;6.80;;
15307;SDS011;7755;52.208;6.964;2024-02-14T05:05:37;9.23;;;8.30;;
15307;SDS011;7755;52.208;6.964;2024-02-14T05:09:43;8.80;;;7.87;;
15307;SDS011;7755;52.208;6.964;2024-02-14T05:13:52;9.90;;;8.93;;
15307;SDS011;7755;52.208;6.964;2024-02-14T05:17:57;9.77;;;8.87;;
15307;SDS011;7755;52.208;6.964;2024-02-14T05:22:03;11.50;;;10.30;;
15307;SDS011;7755;52.208;6.964;2024-02-14T05:26:08;15.67;;;10.43;;
15307;SDS011;7755;52.208;6.964;2024-02-14T05:30:16;11.17;;;10.17;;
15307;SDS011;7755;52.208;6.964;2024-02-14T05:34:27;13.37;;;10.47;;
15307;SDS011;7755;52.208;6.964;2024-02-14T05:38:32;13.73;;;11.40;;
15307;SDS011;7755;52.208;6.964;2024-02-14T05:42:38;12.90;;;11.50;;
15307;SDS011;7755;52.208;6.964;2024-02-14T05:46:45;12.57;;;11.20;;
15307;SDS011;7755;52.208;6.964;2024-02-14T05:50:50;13.60;;;11.20;;
15307;SDS011;7755;52.208;6.964;2024-02-14T05:54:55;12.80;;;11.40;;
15307;SDS011;7755;52.208;6.964;2024-02-14T05:59:01;14.00;;;11.33;;
15307;SDS011;7755;52.208;6.964;2024-02-14T06:03:08;13.93;;;11.63;;
15307;SDS011;7755;52.208;6.964;2024-02-14T06:07:13;13.70;;;12.27;;
15307;SDS011;7755;52.208;6.964;2024-02-14T06:11:18;13.80;;;12.20;;
15307;SDS011;7755;52.208;6.964;2024-02-14T06:15:23;15.47;;;13.07;;
15307;SDS011;7755;52.208;6.964;2024-02-14T06:19:31;12.57;;;11.23;;
15307;SDS011;7755;52.208;6.964;2024-02-14T06:23:41;13.07;;;11.70;;
15307;SDS011;7755;52.208;6.964;2024-02-14T06:27:48;14.87;;;12.90;;
15307;SDS011;7755;52.208;6.964;2024-02-14T06:31:54;15.80;;;12.30;;
15307;SDS011;7755;52.208;6.964;2024-02-14T06:36:02;14.60;;;12.80;;
15307;SDS011;7755;52.208;6.964;2024-02-14T06:40:08;15.70;;;12.77;;
15307;SDS011;7755;52.208;6.964;2024-02-14T06:44:13;17.67;;;12.97;;
15307;SDS011;7755;52.208;6.964;2024-02-14T06:48:20;15.57;;;12.33;;
15307;SDS011;7755;52.208;6.964;2024-02-14T06:52:29;16.60;;;12.50;;
15307;SDS011;7755;52.208;6.964;2024-02-14T06:56:35;14.47;;;11.27;;
15307;SDS011;7755;52.208;6.964;2024-02-14T07:00:40;14.63;;;12.00;;
15307;SDS011;7755;52.208;6.964;2024-02-14T07:04:46;14.90;;;13.47;;
15307;SDS011;7755;52.208;6.964;2024-02-14T07:08:54;17.67;;;13.10;;
15307;SDS011;7755;52.208;6.964;2024-02-14T07:12:59;17.93;;;12.60;;
15307;SDS011;7755;52.208;6.964;2024-02-14T07:17:05;15.13;;;12.90;;
15307;SDS011;7755;52.208;6.964;2024-02-14T07:21:10;13.70;;;12.40;;
15307;SDS011;7755;52.208;6.964;2024-02-14T07:25:17;13.07;;;11.67;;
15307;SDS011;7755;52.208;6.964;2024-02-14T07:29:23;13.40;;;12.00;;
15307;SDS011;7755;52.208;6.964;2024-02-14T07:33:28;12.50;;;11.23;;
15307;SDS011;7755;52.208;6.964;2024-02-14T07:37:33;13.07;;;11.73;;
15307;SDS011;7755;52.208;6.964;2024-02-14T07:41:41;15.60;;;13.33;;
15307;SDS011;7755;52.208;6.964;2024-02-14T07:45:46;13.43;;;12.03;;
15307;SDS011;7755;52.208;6.964;2024-02-14T07:49:52;12.20;;;10.97;;
15307;SDS011;7755;52.208;6.964;2024-02-14T07:54:00;13.43;;;11.63;;
15307;SDS011;7755;52.208;6.964;2024-02-14T07:58:08;13.80;;;12.50;;
15307;SDS011;7755;52.208;6.964;2024-02-14T08:02:14;12.47;;;11.20;;
15307;SDS011;7755;52.208;6.964;2024-02-14T08:06:19;11.47;;;10.30;;
15307;SDS011;7755;52.208;6.964;2024-02-14T08:10:24;11.77;;;10.57;;
15307;SDS011;7755;52.208;6.964;2024-02-14T08:14:35;11.67;;;10.47;;
15307;SDS011;7755;52.208;6.964;2024-02-14T08:18:40;11.53;;;10.30;;
15307;SDS011;7755;52.208;6.964;2024-02-14T08:22:46;10.87;;;9.60;;
15307;SDS011;7755;52.208;6.964;2024-02-14T08:26:51;10.33;;;9.27;;
15307;SDS011;7755;52.208;6.964;2024-02-14T08:30:59;10.97;;;9.93;;
15307;SDS011;7755;52.208;6.964;2024-02-14T08:35:04;10.63;;;9.50;;
15307;SDS011;7755;52.208;6.964;2024-02-14T08:39:12;12.70;;;10.60;;
15307;SDS011;7755;52.208;6.964;2024-02-14T08:43:17;12.27;;;10.93;;
15307;SDS011;7755;52.208;6.964;2024-02-14T08:47:24;12.90;;;10.93;;
15307;SDS011;7755;52.208;6.964;2024-02-14T08:51:30;12.80;;;11.37;;
15307;SDS011;7755;52.208;6.964;2024-02-14T08:55:35;12.43;;;11.13;;
15307;SDS011;7755;52.208;6.964;2024-02-14T08:59:40;13.90;;;11.83;;
15307;SDS011;7755;52.208;6.964;2024-02-14T09:03:51;13.70;;;11.70;;
15307;SDS011;7755;52.208;6.964;2024-02-14T09:07:56;12.37;;;11.17;;
15307;SDS011;7755;52.208;6.964;2024-02-14T09:12:02;14.30;;;11.67;;
15307;SDS011;7755;52.208;6.964;2024-02-14T09:16:07;14.67;;;13.17;;
15307;SDS011;7755;52.208;6.964;2024-02-14T09:20:15;13.67;;;11.63;;
15307;SDS011;7755;52.208;6.964;2024-02-14T09:24:22;14.00;;;12.40;;
15307;SDS011;7755;52.208;6.964;2024-02-14T09:28:27;15.00;;;12.77;;
15307;SDS011;7755;52.208;6.964;2024-02-14T09:32:32;15.23;;;13.47;;
15307;SDS011;7755;52.208;6.964;2024-02-14T09:36:40;15.00;;;13.33;;
15307;SDS011;7755;52.208;6.964;2024-02-14T09:40:48;15.83;;;14.03;;
15307;SDS011;7755;52.208;6.964;2024-02-14T09:44:57;14.63;;;13.07;;
15307;SDS011;7755;52.208;6.964;2024-02-14T09:49:04;14.17;;;12.30;;
15307;SDS011;7755;52.208;6.964;2024-02-14T09:53:13;13.27;;;11.87;;
15307;SDS011;7755;52.208;6.964;2024-02-14T09:57:19;15.60;;;12.00;;
15307;SDS011;7755;52.208;6.964;2024-02-14T10:01:26;13.03;;;11.10;;
15307;SDS011;7755;52.208;6.964;2024-02-14T10:05:32;12.20;;;11.00;;
15307;SDS011;7755;52.208;6.964;2024-02-14T10:09:42;13.57;;;11.50;;
15307;SDS011;7755;52.208;6.964;2024-02-14T10:13:48;10.73;;;9.63;;
15307;SDS011;7755;52.208;6.964;2024-02-14T10:17:55;12.33;;;10.43;;
15307;SDS011;7755;52.208;6.964;2024-02-14T10:22:00;11.83;;;10.63;;
15307;SDS011;7755;52.208;6.964;2024-02-14T10:26:10;11.73;;;10.53;;
15307;SDS011;7755;52.208;6.964;2024-02-14T10:30:15;11.43;;;10.03;;
15307;SDS011;7755;52.208;6.964;2024-02-14T10:34:25;10.37;;;9.10;;
15307;SDS011;7755;52.208;6.964;2024-02-14T10:38:31;9.00;;;8.10;;
15307;SDS011;7755;52.208;6.964;2024-02-14T10:42:39;10.73;;;9.73;;
15307;SDS011;7755;52.208;6.964;2024-02-14T10:46:44;11.20;;;9.37;;
15307;SDS011;7755;52.208;6.964;2024-02-14T10:50:53;9.07;;;8.17;;
15307;SDS011;7755;52.208;6.964;2024-02-14T10:54:59;10.57;;;9.03;;
15307;SDS011;7755;52.208;6.964;2024-02-14T10:59:09;11.83;;;9.13;;
15307;SDS011;7755;52.208;6.964;2024-02-14T11:03:17;11.00;;;8.97;;
15307;SDS011;7755;52.208;6.964;2024-02-14T11:07:23;10.03;;;9.03;;
15307;SDS011;7755;52.208;6.964;2024-02-14T11:11:29;10.63;;;9.53;;
15307;SDS011;7755;52.208;6.964;2024-02-14T11:15:37;10.43;;;9.40;;
15307;SDS011;7755;52.208;6.964;2024-02-14T11:19:43;10.23;;;9.13;;
15307;SDS011;7755;52.208;6.964;2024-02-14T11:23:54;11.13;;;9.90;;
15307;SDS011;7755;52.208;6.964;2024-02-14T11:28:02;10.60;;;9.50;;
15307;SDS011;7755;52.208;6.964;2024-02-14T11:32:21;12.23;;;10.63;;
15307;SDS011;7755;52.208;6.964;2024-02-14T11:36:26;13.83;;;11.63;;
15307;SDS011;7755;52.208;6.964;2024-02-14T11:40:32;13.37;;;11.90;;
15307;SDS011;7755;52.208;6.964;2024-02-14T11:44:40;15.60;;;12.73;;
15307;SDS011;7755;52.208;6.964;2024-02-14T11:48:48;18.20;;;14.63;;
15307;SDS011;7755;52.208;6.964;2024-02-14T11:52:55;17.73;;;13.43;;
15307;SDS011;7755;52.208;6.964;2024-02-14T11:57:00;18.83;;;13.90;;
15307;SDS011;7755;52.208;6.964;2024-02-14T12:01:05;18.33;;;14.63;;
15307;SDS011;7755;52.208;6.964;2024-02-14T12:05:14;15.40;;;13.63;;
15307;SDS011;7755;52.208;6.964;2024-02-14T12:09:19;17.60;;;13.70;;
15307;SDS011;7755;52.208;6.964;2024-02-14T12:13:28;14.83;;;12.40;;
15307;SDS011;7755;52.208;6.964;2024-02-14T12:17:39;16.30;;;14.03;;
15307;SDS011;7755;52.208;6.964;2024-02-14T12:21:47;14.40;;;12.13;;
15307;SDS011;7755;52.208;6.964;2024-02-14T12:25:53;15.27;;;12.27;;
15307;SDS011;7755;52.208;6.964;2024-02-14T12:29:58;15.73;;;11.13;;
15307;SDS011;7755;52.208;6.964;2024-02-14T12:34:04;13.47;;;10.67;;
15307;SDS011;7755;52.208;6.964;2024-02-14T12:38:12;12.33;;;11.00;;
15307;SDS011;7755;52.208;6.964;2024-02-14T12:42:18;14.43;;;11.27;;
15307;SDS011;7755;52.208;6.964;2024-02-14T12:46:26;13.03;;;10.43;;
15307;SDS011;7755;52.208;6.964;2024-02-14T12:50:32;11.70;;;10.50;;
15307;SDS011;7755;52.208;6.964;2024-02-14T12:54:40;11.83;;;10.43;;
15307;SDS011;7755;52.208;6.964;2024-02-14T12:58:49;15.00;;;10.57;;
15307;SDS011;7755;52.208;6.964;2024-02-14T13:02:54;13.63;;;9.20;;
15307;SDS011;7755;52.208;6.964;2024-02-14T13:07:00;10.80;;;9.57;;
15307;SDS011;7755;52.208;6.964;2024-02-14T13:11:07;9.67;;;8.67;;
15307;SDS011;7755;52.208;6.964;2024-02-14T13:15:12;10.67;;;9.37;;
15307;SDS011;7755;52.208;6.964;2024-02-14T13:19:18;9.50;;;8.50;;
15307;SDS011;7755;52.208;6.964;2024-02-14T13:23:24;11.17;;;8.07;;
15307;SDS011;7755;52.208;6.964;2024-02-14T13:27:31;10.27;;;8.30;;
15307;SDS011;7755;52.208;6.964;2024-02-14T13:31:37;7.60;;;6.87;;
15307;SDS011;7755;52.208;6.964;2024-02-14T13:35:42;9.87;;;7.23;;
15307;SDS011;7755;52.208;6.964;2024-02-14T13:39:47;7.90;;;7.10;;
15307;SDS011;7755;52.208;6.964;2024-02-14T13:43:55;8.23;;;7.43;;
15307;SDS011;7755;52.208;6.964;2024-02-14T13:48:02;7.60;;;6.80;;
15307;SDS011;7755;52.208;6.964;2024-02-14T13:52:10;6.73;;;5.90;;
15307;SDS011;7755;52.208;6.964;2024-02-14T13:56:17;6.13;;;5.50;;
15307;SDS011;7755;52.208;6.964;2024-02-14T14:00:26;7.10;;;6.40;;
15307;SDS011;7755;52.208;6.964;2024-02-14T14:04:31;9.27;;;7.90;;
15307;SDS011;7755;52.208;6.964;2024-02-14T14:08:37;6.77;;;5.87;;
15307;SDS011;7755;52.208;6.964;2024-02-14T14:12:42;5.60;;;5.00;;
15307;SDS011;7755;52.208;6.964;2024-02-14T14:16:50;5.93;;;5.43;;
15307;SDS011;7755;52.208;6.964;2024-02-14T14:20:55;5.30;;;4.80;;
15307;SDS011;7755;52.208;6.964;2024-02-14T14:25:00;5.30;;;4.90;;
15307;SDS011;7755;52.208;6.964;2024-02-14T14:29:06;5.37;;;4.47;;
15307;SDS011;7755;52.208;6.964;2024-02-14T14:33:15;5.33;;;4.63;;
15307;SDS011;7755;52.208;6.964;2024-02-14T14:37:20;4.20;;;3.87;;
15307;SDS011;7755;52.208;6.964;2024-02-14T14:41:26;4.30;;;3.90;;
15307;SDS011;7755;52.208;6.964;2024-02-14T14:45:31;5.97;;;5.47;;
15307;SDS011;7755;52.208;6.964;2024-02-14T14:49:39;4.10;;;3.80;;
15307;SDS011;7755;52.208;6.964;2024-02-14T14:53:44;4.10;;;3.80;;
15307;SDS011;7755;52.208;6.964;2024-02-14T14:57:49;3.90;;;3.60;;
15307;SDS011;7755;52.208;6.964;2024-02-14T15:01:55;4.47;;;4.07;;
15307;SDS011;7755;52.208;6.964;2024-02-14T15:06:03;3.83;;;3.43;;
15307;SDS011;7755;52.208;6.964;2024-02-14T15:10:08;4.03;;;3.63;;
15307;SDS011;7755;52.208;6.964;2024-02-14T15:14:14;3.63;;;3.33;;
15307;SDS011;7755;52.208;6.964;2024-02-14T15:18:19;3.67;;;3.37;;
15307;SDS011;7755;52.208;6.964;2024-02-14T15:22:27;3.37;;;3.17;;
15307;SDS011;7755;52.208;6.964;2024-02-14T15:26:32;3.57;;;3.27;;
15307;SDS011;7755;52.208;6.964;2024-02-14T15:30:51;3.60;;;3.30;;
15307;SDS011;7755;52.208;6.964;2024-02-14T15:35:09;3.83;;;3.60;;
15307;SDS011;7755;52.208;6.964;2024-02-14T15:39:17;4.33;;;3.97;;
15307;SDS011;7755;52.208;6.964;2024-02-14T15:43:23;4.90;;;4.50;;
15307;SDS011;7755;52.208;6.964;2024-02-14T15:47:29;5.13;;;4.63;;
15307;SDS011;7755;52.208;6.964;2024-02-14T15:51:34;5.40;;;4.93;;
15307;SDS011;7755;52.208;6.964;2024-02-14T15:55:41;5.30;;;4.90;;
15307;SDS011;7755;52.208;6.964;2024-02-14T15:59:47;6.00;;;5.43;;
15307;SDS011;7755;52.208;6.964;2024-02-14T16:03:53;6.57;;;5.87;;
15307;SDS011;7755;52.208;6.964;2024-02-14T16:07:58;5.97;;;5.47;;
15307;SDS011;7755;52.208;6.964;2024-02-14T16:12:06;7.13;;;6.30;;
15307;SDS011;7755;52.208;6.964;2024-02-14T16:16:11;6.57;;;5.97;;
15307;SDS011;7755;52.208;6.964;2024-02-14T16:20:16;6.27;;;5.67;;
15307;SDS011;7755;52.208;6.964;2024-02-14T16:24:23;5.50;;;5.00;;
15307;SDS011;7755;52.208;6.964;2024-02-14T16:28:32;5.90;;;5.33;;
15307;SDS011;7755;52.208;6.964;2024-02-14T16:32:38;6.03;;;5.53;;
15307;SDS011;7755;52.208;6.964;2024-02-14T16:36:43;6.80;;;6.20;;
15307;SDS011;7755;52.208;6.964;2024-02-14T16:40:48;5.93;;;5.43;;
15307;SDS011;7755;52.208;6.964;2024-02-14T16:44:59;7.43;;;6.83;;
15307;SDS011;7755;52.208;6.964;2024-02-14T16:49:06;7.10;;;6.50;;
15307;SDS011;7755;52.208;6.964;2024-02-14T16:53:12;6.47;;;5.87;;
15307;SDS011;7755;52.208;6.964;2024-02-14T16:57:17;8.23;;;7.43;;
15307;SDS011;7755;52.208;6.964;2024-02-14T17:01:25;7.57;;;6.53;;
15307;SDS011;7755;52.208;6.964;2024-02-14T17:05:31;8.43;;;7.53;;
15307;SDS011;7755;52.208;6.964;2024-02-14T17:09:37;8.40;;;7.60;;
15307;SDS011;7755;52.208;6.964;2024-02-14T17:13:44;7.97;;;7.27;;
15307;SDS011;7755;52.208;6.964;2024-02-14T17:17:52;8.07;;;7.27;;
15307;SDS011;7755;52.208;6.964;2024-02-14T17:21:59;7.87;;;7.17;;
15307;SDS011;7755;52.208;6.964;2024-02-14T17:26:18;8.93;;;7.90;;
15307;SDS011;7755;52.208;6.964;2024-02-14T17:30:23;8.30;;;7.60;;
15307;SDS011;7755;52.208;6.964;2024-02-14T17:34:30;7.67;;;6.97;;
15307;SDS011;7755;52.208;6.964;2024-02-14T17:38:35;8.50;;;7.70;;
15307;SDS011;7755;52.208;6.964;2024-02-14T17:42:41;8.93;;;8.03;;
15307;SDS011;7755;52.208;6.964;2024-02-14T17:46:46;8.33;;;7.53;;
15307;SDS011;7755;52.208;6.964;2024-02-14T17:50:54;9.73;;;8.77;;
15307;SDS011;7755;52.208;6.964;2024-02-14T17:54:59;10.30;;;8.80;;
15307;SDS011;7755;52.208;6.964;2024-02-14T17:59:06;10.07;;;8.97;;
15307;SDS011;7755;52.208;6.964;2024-02-14T18:03:11;9.97;;;9.00;;
15307;SDS011;7755;52.208;6.964;2024-02-14T18:07:19;13.23;;;11.60;;
15307;SDS011;7755;52.208;6.964;2024-02-14T18:11:24;13.17;;;11.77;;
15307;SDS011;7755;52.208;6.964;2024-02-14T18:15:29;14.77;;;13.27;;
15307;SDS011;7755;52.208;6.964;2024-02-14T18:19:34;16.27;;;14.57;;
15307;SDS011;7755;52.208;6.964;2024-02-14T18:23:42;15.53;;;13.23;;
15307;SDS011;7755;52.208;6.964;2024-02-14T18:27:51;15.17;;;13.53;;
15307;SDS011;7755;52.208;6.964;2024-02-14T18:31:56;15.20;;;13.60;;
15307;SDS011;7755;52.208;6.964;2024-02-14T18:36:04;15.20;;;12.80;;
15307;SDS011;7755;52.208;6.964;2024-02-14T18:40:12;14.97;;;13.20;;
15307;SDS011;7755;52.208;6.964;2024-02-14T18:44:20;13.30;;;11.90;;
15307;SDS011;7755;52.208;6.964;2024-02-14T18:48:27;14.70;;;12.57;;
15307;SDS011;7755;52.208;6.964;2024-02-14T18:52:36;15.60;;;13.20;;
15307;SDS011;7755;52.208;6.964;2024-02-14T18:56:45;18.00;;;14.33;;
15307;SDS011;7755;52.208;6.964;2024-02-14T19:00:52;15.73;;;13.53;;
15307;SDS011;7755;52.208;6.964;2024-02-14T19:05:01;17.50;;;15.23;;
15307;SDS011;7755;52.208;6.964;2024-02-14T19:09:11;18.37;;;15.77;;
15307;SDS011;7755;52.208;6.964;2024-02-14T19:13:24;19.97;;;16.83;;
15307;SDS011;7755;52.208;6.964;2024-02-14T19:17:30;21.10;;;17.10;;
15307;SDS011;7755;52.208;6.964;2024-02-14T19:21:36;18.43;;;16.53;;
15307;SDS011;7755;52.208;6.964;2024-02-14T19:25:42;22.03;;;16.50;;
15307;SDS011;7755;52.208;6.964;2024-02-14T19:29:53;22.10;;;18.10;;
15307;SDS011;7755;52.208;6.964;2024-02-14T19:34:00;25.30;;;18.77;;
15307;SDS011;7755;52.208;6.964;2024-02-14T19:38:07;21.00;;;17.33;;
15307;SDS011;7755;52.208;6.964;2024-02-14T19:42:12;22.87;;;17.90;;
15307;SDS011;7755;52.208;6.964;2024-02-14T19:46:19;21.37;;;18.77;;
15307;SDS011;7755;52.208;6.964;2024-02-14T19:50:25;24.00;;;18.17;;
15307;SDS011;7755;52.208;6.964;2024-02-14T19:54:31;21.60;;;18.20;;
15307;SDS011;7755;52.208;6.964;2024-02-14T19:58:36;24.50;;;20.10;;
15307;SDS011;7755;52.208;6.964;2024-02-14T20:02:43;26.37;;;19.43;;
15307;SDS011;7755;52.208;6.964;2024-02-14T20:06:49;19.50;;;17.40;;
15307;SDS011;7755;52.208;6.964;2024-02-14T20:10:57;20.33;;;17.60;;
15307;SDS011;7755;52.208;6.964;2024-02-14T20:15:06;21.93;;;17.57;;
15307;SDS011;7755;52.208;6.964;2024-02-14T20:19:16;23.57;;;17.33;;
15307;SDS011;7755;52.208;6.964;2024-02-14T20:23:21;22.47;;;17.87;;
15307;SDS011;7755;52.208;6.964;2024-02-14T20:27:27;21.57;;;18.37;;
15307;SDS011;7755;52.208;6.964;2024-02-14T20:31:33;20.13;;;17.63;;
15307;SDS011;7755;52.208;6.964;2024-02-14T20:35:41;20.80;;;18.30;;
15307;SDS011;7755;52.208;6.964;2024-02-14T20:39:47;21.50;;;17.40;;
15307;SDS011;7755;52.208;6.964;2024-02-14T20:43:52;22.67;;;18.03;;
15307;SDS011;7755;52.208;6.964;2024-02-14T20:47:57;21.50;;;18.23;;
15307;SDS011;7755;52.208;6.964;2024-02-14T20:52:05;21.93;;;16.97;;
15307;SDS011;7755;52.208;6.964;2024-02-14T20:56:10;20.43;;;17.03;;
15307;SDS011;7755;52.208;6.964;2024-02-14T21:00:15;23.73;;;18.83;;
15307;SDS011;7755;52.208;6.964;2024-02-14T21:04:21;22.30;;;17.07;;
15307;SDS011;7755;52.208;6.964;2024-02-14T21:08:29;22.43;;;17.47;;
15307;SDS011;7755;52.208;6.964;2024-02-14T21:12:34;19.30;;;16.67;;
15307;SDS011;7755;52.208;6.964;2024-02-14T21:16:38;21.23;;;16.00;;
15307;SDS011;7755;52.208;6.964;2024-02-14T21:20:43;21.53;;;17.20;;
15307;SDS011;7755;52.208;6.964;2024-02-14T21:24:51;18.50;;;16.10;;
15307;SDS011;7755;52.208;6.964;2024-02-14T21:28:56;20.33;;;15.87;;
15307;SDS011;7755;52.208;6.964;2024-02-14T21:33:01;18.60;;;16.03;;
15307;SDS011;7755;52.208;6.964;2024-02-14T21:37:06;19.77;;;16.43;;
15307;SDS011;7755;52.208;6.964;2024-02-14T21:41:15;20.73;;;16.37;;
15307;SDS011;7755;52.208;6.964;2024-02-14T21:45:22;23.87;;;18.33;;
15307;SDS011;7755;52.208;6.964;2024-02-14T21:49:27;21.67;;;16.63;;
15307;SDS011;7755;52.208;6.964;2024-02-14T21:53:34;20.30;;;18.07;;
15307;SDS011;7755;52.208;6.964;2024-02-14T21:57:42;21.67;;;17.87;;
15307;SDS011;7755;52.208;6.964;2024-02-14T22:01:46;22.60;;;18.13;;
15307;SDS011;7755;52.208;6.964;2024-02-14T22:05:52;23.30;;;20.00;;
15307;SDS011;7755;52.208;6.964;2024-02-14T22:09:57;22.30;;;17.97;;
15307;SDS011;7755;52.208;6.964;2024-02-14T22:14:04;21.47;;;18.03;;
15307;SDS011;7755;52.208;6.964;2024-02-14T22:18:10;21.97;;;18.27;;
15307;SDS011;7755;52.208;6.964;2024-02-14T22:22:15;23.00;;;19.40;;
15307;SDS011;7755;52.208;6.964;2024-02-14T22:26:21;19.13;;;17.03;;
15307;SDS011;7755;52.208;6.964;2024-02-14T22:30:29;20.17;;;16.63;;
15307;SDS011;7755;52.208;6.964;2024-02-14T22:34:34;20.43;;;16.83;;
15307;SDS011;7755;52.208;6.964;2024-02-14T22:38:39;20.73;;;16.93;;
15307;SDS011;7755;52.208;6.964;2024-02-14T22:42:44;19.93;;;15.47;;
15307;SDS011;7755;52.208;6.964;2024-02-14T22:46:52;20.53;;;16.07;;
15307;SDS011;7755;52.208;6.964;2024-02-14T22:50:57;18.30;;;14.57;;
15307;SDS011;7755;52.208;6.964;2024-02-14T22:55:02;17.67;;;14.00;;
15307;SDS011;7755;52.208;6.964;2024-02-14T22:59:11;21.43;;;16.37;;
15307;SDS011;7755;52.208;6.964;2024-02-14T23:03:18;18.50;;;15.47;;
15307;SDS011;7755;52.208;6.964;2024-02-14T23:07:23;18.10;;;15.40;;
15307;SDS011;7755;52.208;6.964;2024-02-14T23:11:36;18.67;;;14.57;;
15307;SDS011;7755;52.208;6.964;2024-02-14T23:15:41;22.60;;;17.13;;
15307;SDS011;7755;52.208;6.964;2024-02-14T23:19:49;21.83;;;15.53;;
15307;SDS011;7755;52.208;6.964;2024-02-14T23:23:54;18.30;;;16.00;;
15307;SDS011;7755;52.208;6.964;2024-02-14T23:27:59;17.23;;;14.87;;
15307;SDS011;7755;52.208;6.964;2024-02-14T23:32:04;20.47;;;16.20;;
15307;SDS011;7755;52.208;6.964;2024-02-14T23:36:12;18.30;;;14.60;;
15307;SDS011;7755;52.208;6.964;2024-02-14T23:40:17;18.30;;;14.27;;
15307;SDS011;7755;52.208;6.964;2024-02-14T23:44:22;16.33;;;13.80;;
15307;SDS011;7755;52.208;6.964;2024-02-14T23:48:29;19.03;;;15.03;;
15307;SDS011;7755;52.208;6.964;2024-02-14T23:52:37;19.60;;;15.07;;
15307;SDS011;7755;52.208;6.964;2024-02-14T23:56:44;18.03;;;15.17;;
